Time;durP1;ratioP1;P1;durP2;ratioP2;P2;SDS_P1;SDS_P2;PMS_P1;PMS_P2;Temp;Humidity;BMP_temperature;BMP_pressure;BME280_temperature;BME280_humidity;BME280_pressure;Samples;Min_cycle;Max_cycle;Signal;HPM_P1;HPM_P2
2022/07/14 00:01:10;;;;;;;1.80;1.00;;;;;;;0.00;0.00;59042.03;21321307;27;20035;-74
2022/07/14 00:11:10;;;;;;;1.80;1.10;;;;;;;0.00;0.00;59042.03;21334470;27;20051;-75
2022/07/14 00:21:13;;;;;;;1.52;1.20;;;;;;;0.00;0.00;59042.03;21346491;27;20035;-74
2022/07/14 00:31:14;;;;;;;2.78;1.00;;;;;;;0.00;0.00;59042.03;21332386;27;20045;-75
2022/07/14 00:41:15;;;;;;;3.53;1.30;;;;;;;0.00;0.00;59042.03;21316931;27;20032;-75
2022/07/14 00:51:15;;;;;;;3.47;1.00;;;;;;;0.00;0.00;59042.03;21347950;27;20043;-75
2022/07/14 01:01:17;;;;;;;2.35;1.08;;;;;;;0.00;0.00;59042.03;21343863;27;20521;-75
2022/07/14 01:11:17;;;;;;;1.43;1.10;;;;;;;0.00;0.00;59042.03;21311844;27;20136;-77
2022/07/14 01:21:18;;;;;;;3.40;1.38;;;;;;;0.00;0.00;59042.03;21342295;27;20039;-76
2022/07/14 01:31:18;;;;;;;1.95;1.13;;;;;;;0.00;0.00;59042.03;21320095;27;20043;-77
2022/07/14 01:41:20;;;;;;;3.45;1.50;;;;;;;0.00;0.00;59042.03;21300554;27;20034;-76
2022/07/14 01:51:21;;;;;;;3.75;1.08;;;;;;;0.00;0.00;59042.03;21338343;27;20050;-77
2022/07/14 02:01:40;;;;;;;1.55;1.00;;;;;;;0.00;0.00;59042.03;21362314;27;20035;-76
2022/07/14 02:21:59;;;;;;;2.75;1.10;;;;;;;0.00;0.00;59042.03;21360626;27;20426;-77
2022/07/14 02:32:00;;;;;;;1.17;0.90;;;;;;;0.00;0.00;59042.03;21358318;27;20104;-76
2022/07/14 02:42:00;;;;;;;1.30;1.20;;;;;;;0.00;0.00;59042.03;21354058;27;20088;-76
2022/07/14 02:52:01;;;;;;;2.78;1.30;;;;;;;0.00;0.00;59042.03;21351862;27;20054;-77
2022/07/14 03:02:01;;;;;;;3.15;1.45;;;;;;;0.00;0.00;59042.03;21341211;27;20039;-77
2022/07/14 03:12:02;;;;;;;2.33;1.38;;;;;;;0.00;0.00;59042.03;21333383;27;20048;-78
2022/07/14 03:22:02;;;;;;;5.97;1.80;;;;;;;0.00;0.00;59042.03;21347789;27;20038;-77
2022/07/14 03:32:03;;;;;;;3.40;1.10;;;;;;;0.00;0.00;59042.03;21333020;27;20043;-77
2022/07/14 03:42:03;;;;;;;4.00;2.00;;;;;;;0.00;0.00;59042.03;21332106;27;20061;-78
2022/07/14 03:52:04;;;;;;;3.28;1.58;;;;;;;0.00;0.00;59042.03;21338006;27;20309;-76
2022/07/14 04:02:05;;;;;;;4.25;2.20;;;;;;;0.00;0.00;59042.03;21321080;27;20107;-75
2022/07/14 04:12:07;;;;;;;3.08;1.83;;;;;;;0.00;0.00;59042.03;21279233;27;20051;-77
2022/07/14 04:22:07;;;;;;;4.43;1.90;;;;;;;0.00;0.00;59042.03;21326282;27;20043;-76
2022/07/14 04:32:08;;;;;;;2.20;1.70;;;;;;;0.00;0.00;59042.03;21342032;27;20132;-77
2022/07/14 04:42:08;;;;;;;6.60;1.90;;;;;;;0.00;0.00;59042.03;21349560;27;20103;-76
2022/07/14 04:52:08;;;;;;;7.07;2.60;;;;;;;0.00;0.00;59042.03;21338653;27;20279;-77
2022/07/14 05:02:10;;;;;;;4.25;2.20;;;;;;;0.00;0.00;59042.03;21342021;27;20054;-76
2022/07/14 05:12:13;;;;;;;7.87;2.83;;;;;;;0.00;0.00;59042.03;21326898;27;20043;-76
2022/07/14 05:22:14;;;;;;;11.98;2.70;;;;;;;0.00;0.00;59042.03;21318468;27;20046;-76
2022/07/14 05:32:14;;;;;;;5.75;2.42;;;;;;;0.00;0.00;59042.03;21341700;27;20503;-77
2022/07/14 05:42:14;;;;;;;11.40;2.65;;;;;;;0.00;0.00;59042.03;21342671;27;20081;-77
2022/07/14 05:52:15;;;;;;;4.60;2.15;;;;;;;0.00;0.00;59042.03;21329478;27;20042;-77
2022/07/14 06:02:15;;;;;;;3.92;2.15;;;;;;;0.00;0.00;59042.03;21318012;27;20035;-77
2022/07/14 06:12:16;;;;;;;4.57;2.13;;;;;;;0.00;0.00;59042.03;21337030;27;20091;-77
2022/07/14 06:22:18;;;;;;;8.52;2.17;;;;;;;0.00;0.00;59042.03;21323454;27;20505;-80
2022/07/14 06:32:19;;;;;;;3.43;2.00;;;;;;;0.00;0.00;59042.03;21313259;27;20504;-75
2022/07/14 06:42:20;;;;;;;5.57;1.92;;;;;;;0.00;0.00;59042.03;21335126;27;20047;-75
2022/07/14 06:52:20;;;;;;;3.53;1.85;;;;;;;0.00;0.00;59042.03;21335675;27;20142;-76
2022/07/14 07:02:21;;;;;;;4.00;1.70;;;;;;;0.00;0.00;59042.03;21331297;27;20168;-76
